sensor_id;sensor_type;location;lat;lon;timestamp;P1;durP1;ratioP1;P2;durP2;ratioP2
1831;SDS011;1680;48.106;11.708;2023-08-12T00:00:00;5.10;;;4.20;;
1831;SDS011;1680;48.106;11.708;2023-08-12T00:02:34;4.40;;;4.10;;
1831;SDS011;1680;48.106;11.708;2023-08-12T00:05:01;4.03;;;3.53;;
1831;SDS011;1680;48.106;11.708;2023-08-12T00:07:29;3.90;;;3.60;;
1831;SDS011;1680;48.106;11.708;2023-08-12T00:09:57;4.33;;;3.93;;
1831;SDS011;1680;48.106;11.708;2023-08-12T00:12:25;4.43;;;4.13;;
1831;SDS011;1680;48.106;11.708;2023-08-12T00:14:53;4.30;;;3.93;;
1831;SDS011;1680;48.106;11.708;2023-08-12T00:17:20;4.20;;;3.80;;
1831;SDS011;1680;48.106;11.708;2023-08-12T00:19:48;4.40;;;4.00;;
1831;SDS011;1680;48.106;11.708;2023-08-12T00:22:15;4.07;;;3.67;;
1831;SDS011;1680;48.106;11.708;2023-08-12T00:24:42;4.30;;;4.00;;
1831;SDS011;1680;48.106;11.708;2023-08-12T00:27:09;4.27;;;3.90;;
1831;SDS011;1680;48.106;11.708;2023-08-12T00:29:36;5.20;;;3.97;;
1831;SDS011;1680;48.106;11.708;2023-08-12T00:32:05;4.40;;;4.10;;
1831;SDS011;1680;48.106;11.708;2023-08-12T00:34:32;4.00;;;3.70;;
1831;SDS011;1680;48.106;11.708;2023-08-12T00:37:00;4.43;;;4.03;;
1831;SDS011;1680;48.106;11.708;2023-08-12T00:39:27;4.53;;;4.23;;
1831;SDS011;1680;48.106;11.708;2023-08-12T00:41:54;4.70;;;4.03;;
1831;SDS011;1680;48.106;11.708;2023-08-12T00:44:21;6.53;;;3.77;;
1831;SDS011;1680;48.106;11.708;2023-08-12T00:46:48;4.13;;;3.83;;
1831;SDS011;1680;48.106;11.708;2023-08-12T00:49:21;4.23;;;3.93;;
1831;SDS011;1680;48.106;11.708;2023-08-12T00:51:49;4.30;;;3.90;;
1831;SDS011;1680;48.106;11.708;2023-08-12T00:54:17;3.90;;;3.60;;
1831;SDS011;1680;48.106;11.708;2023-08-12T00:56:47;4.00;;;3.53;;
1831;SDS011;1680;48.106;11.708;2023-08-12T00:59:16;4.07;;;3.70;;
1831;SDS011;1680;48.106;11.708;2023-08-12T01:01:43;4.27;;;3.90;;
1831;SDS011;1680;48.106;11.708;2023-08-12T01:04:11;4.00;;;3.70;;
1831;SDS011;1680;48.106;11.708;2023-08-12T01:06:40;4.63;;;4.23;;
1831;SDS011;1680;48.106;11.708;2023-08-12T01:09:07;3.77;;;3.47;;
1831;SDS011;1680;48.106;11.708;2023-08-12T01:11:39;4.23;;;3.93;;
1831;SDS011;1680;48.106;11.708;2023-08-12T01:14:16;4.47;;;4.07;;
1831;SDS011;1680;48.106;11.708;2023-08-12T01:16:47;4.17;;;3.87;;
1831;SDS011;1680;48.106;11.708;2023-08-12T01:19:21;3.83;;;3.53;;
1831;SDS011;1680;48.106;11.708;2023-08-12T01:21:53;3.93;;;3.63;;
1831;SDS011;1680;48.106;11.708;2023-08-12T01:24:24;4.23;;;3.83;;
1831;SDS011;1680;48.106;11.708;2023-08-12T01:26:51;4.27;;;3.90;;
1831;SDS011;1680;48.106;11.708;2023-08-12T01:29:20;4.20;;;3.80;;
1831;SDS011;1680;48.106;11.708;2023-08-12T01:31:48;4.83;;;4.43;;
1831;SDS011;1680;48.106;11.708;2023-08-12T01:34:21;3.90;;;3.60;;
1831;SDS011;1680;48.106;11.708;2023-08-12T01:36:54;6.07;;;4.50;;
1831;SDS011;1680;48.106;11.708;2023-08-12T01:39:25;3.60;;;3.30;;
1831;SDS011;1680;48.106;11.708;2023-08-12T01:41:53;4.53;;;4.23;;
1831;SDS011;1680;48.106;11.708;2023-08-12T01:44:22;4.33;;;4.03;;
1831;SDS011;1680;48.106;11.708;2023-08-12T01:46:49;4.27;;;3.97;;
1831;SDS011;1680;48.106;11.708;2023-08-12T01:49:16;4.73;;;4.40;;
1831;SDS011;1680;48.106;11.708;2023-08-12T01:51:43;4.30;;;3.90;;
1831;SDS011;1680;48.106;11.708;2023-08-12T01:54:11;4.90;;;4.50;;
1831;SDS011;1680;48.106;11.708;2023-08-12T01:56:39;4.37;;;3.97;;
1831;SDS011;1680;48.106;11.708;2023-08-12T01:59:06;5.50;;;4.57;;
1831;SDS011;1680;48.106;11.708;2023-08-12T02:01:33;4.60;;;4.20;;
1831;SDS011;1680;48.106;11.708;2023-08-12T02:04:01;3.73;;;3.43;;
1831;SDS011;1680;48.106;11.708;2023-08-12T02:06:28;4.23;;;3.93;;
1831;SDS011;1680;48.106;11.708;2023-08-12T02:08:55;4.60;;;4.20;;
1831;SDS011;1680;48.106;11.708;2023-08-12T02:11:23;4.90;;;4.50;;
1831;SDS011;1680;48.106;11.708;2023-08-12T02:13:51;4.17;;;3.87;;
1831;SDS011;1680;48.106;11.708;2023-08-12T02:16:18;4.40;;;4.10;;
1831;SDS011;1680;48.106;11.708;2023-08-12T02:18:45;4.50;;;4.10;;
1831;SDS011;1680;48.106;11.708;2023-08-12T02:21:13;4.83;;;4.20;;
1831;SDS011;1680;48.106;11.708;2023-08-12T02:23:40;4.40;;;4.00;;
1831;SDS011;1680;48.106;11.708;2023-08-12T02:26:09;4.47;;;4.17;;
1831;SDS011;1680;48.106;11.708;2023-08-12T02:28:36;4.10;;;3.70;;
1831;SDS011;1680;48.106;11.708;2023-08-12T02:31:05;4.37;;;4.03;;
1831;SDS011;1680;48.106;11.708;2023-08-12T02:33:32;4.57;;;4.07;;
1831;SDS011;1680;48.106;11.708;2023-08-12T02:35:59;4.67;;;4.27;;
1831;SDS011;1680;48.106;11.708;2023-08-12T02:38:26;4.63;;;4.23;;
1831;SDS011;1680;48.106;11.708;2023-08-12T02:40:53;4.40;;;4.10;;
1831;SDS011;1680;48.106;11.708;2023-08-12T02:43:20;5.50;;;5.00;;
1831;SDS011;1680;48.106;11.708;2023-08-12T02:45:48;5.00;;;4.60;;
1831;SDS011;1680;48.106;11.708;2023-08-12T02:48:16;4.60;;;4.20;;
1831;SDS011;1680;48.106;11.708;2023-08-12T02:50:43;4.73;;;4.33;;
1831;SDS011;1680;48.106;11.708;2023-08-12T02:53:10;4.53;;;4.20;;
1831;SDS011;1680;48.106;11.708;2023-08-12T02:55:38;5.67;;;5.07;;
1831;SDS011;1680;48.106;11.708;2023-08-12T02:58:05;4.77;;;4.20;;
1831;SDS011;1680;48.106;11.708;2023-08-12T03:00:32;5.07;;;4.47;;
1831;SDS011;1680;48.106;11.708;2023-08-12T03:02:59;4.90;;;4.50;;
1831;SDS011;1680;48.106;11.708;2023-08-12T03:05:28;5.53;;;5.03;;
1831;SDS011;1680;48.106;11.708;2023-08-12T03:07:55;5.33;;;4.37;;
1831;SDS011;1680;48.106;11.708;2023-08-12T03:10:22;5.00;;;4.60;;
1831;SDS011;1680;48.106;11.708;2023-08-12T03:12:49;5.10;;;4.00;;
1831;SDS011;1680;48.106;11.708;2023-08-12T03:15:16;4.90;;;4.43;;
1831;SDS011;1680;48.106;11.708;2023-08-12T03:17:44;4.93;;;4.50;;
1831;SDS011;1680;48.106;11.708;2023-08-12T03:20:11;4.80;;;4.40;;
1831;SDS011;1680;48.106;11.708;2023-08-12T03:22:39;5.10;;;4.70;;
1831;SDS011;1680;48.106;11.708;2023-08-12T03:25:07;5.90;;;5.27;;
1831;SDS011;1680;48.106;11.708;2023-08-12T03:27:34;5.13;;;4.63;;
1831;SDS011;1680;48.106;11.708;2023-08-12T03:30:02;5.20;;;4.70;;
1831;SDS011;1680;48.106;11.708;2023-08-12T03:32:29;4.80;;;4.40;;
1831;SDS011;1680;48.106;11.708;2023-08-12T03:34:56;5.07;;;4.57;;
1831;SDS011;1680;48.106;11.708;2023-08-12T03:37:24;5.10;;;4.60;;
1831;SDS011;1680;48.106;11.708;2023-08-12T03:39:53;4.73;;;4.33;;
1831;SDS011;1680;48.106;11.708;2023-08-12T03:42:20;5.97;;;5.00;;
1831;SDS011;1680;48.106;11.708;2023-08-12T03:44:47;5.10;;;4.63;;
1831;SDS011;1680;48.106;11.708;2023-08-12T03:47:14;7.00;;;4.90;;
1831;SDS011;1680;48.106;11.708;2023-08-12T03:49:46;5.30;;;4.80;;
1831;SDS011;1680;48.106;11.708;2023-08-12T03:52:14;5.00;;;4.60;;
1831;SDS011;1680;48.106;11.708;2023-08-12T03:54:41;5.67;;;5.17;;
1831;SDS011;1680;48.106;11.708;2023-08-12T03:57:09;5.13;;;4.63;;
1831;SDS011;1680;48.106;11.708;2023-08-12T03:59:36;5.10;;;4.70;;
1831;SDS011;1680;48.106;11.708;2023-08-12T04:02:04;5.37;;;4.90;;
1831;SDS011;1680;48.106;11.708;2023-08-12T04:04:31;5.93;;;5.30;;
1831;SDS011;1680;48.106;11.708;2023-08-12T04:06:58;5.20;;;4.70;;
1831;SDS011;1680;48.106;11.708;2023-08-12T04:09:25;5.23;;;4.73;;
1831;SDS011;1680;48.106;11.708;2023-08-12T04:11:52;5.37;;;4.87;;
1831;SDS011;1680;48.106;11.708;2023-08-12T04:14:21;4.80;;;4.43;;
1831;SDS011;1680;48.106;11.708;2023-08-12T04:16:48;4.70;;;4.30;;
1831;SDS011;1680;48.106;11.708;2023-08-12T04:19:15;4.67;;;4.23;;
1831;SDS011;1680;48.106;11.708;2023-08-12T04:21:42;4.63;;;4.23;;
1831;SDS011;1680;48.106;11.708;2023-08-12T04:24:11;6.30;;;4.30;;
1831;SDS011;1680;48.106;11.708;2023-08-12T04:26:39;4.73;;;4.33;;
1831;SDS011;1680;48.106;11.708;2023-08-12T04:29:06;6.20;;;3.90;;
1831;SDS011;1680;48.106;11.708;2023-08-12T04:31:34;4.60;;;4.20;;
1831;SDS011;1680;48.106;11.708;2023-08-12T04:34:02;6.17;;;4.63;;
1831;SDS011;1680;48.106;11.708;2023-08-12T04:36:30;6.90;;;4.57;;
1831;SDS011;1680;48.106;11.708;2023-08-12T04:38:57;5.10;;;4.60;;
1831;SDS011;1680;48.106;11.708;2023-08-12T04:41:24;5.17;;;4.77;;
1831;SDS011;1680;48.106;11.708;2023-08-12T04:43:51;5.20;;;4.80;;
1831;SDS011;1680;48.106;11.708;2023-08-12T04:46:18;4.80;;;4.40;;
1831;SDS011;1680;48.106;11.708;2023-08-12T04:48:47;5.50;;;4.30;;
1831;SDS011;1680;48.106;11.708;2023-08-12T04:51:14;4.70;;;4.30;;
1831;SDS011;1680;48.106;11.708;2023-08-12T04:53:41;5.50;;;5.00;;
1831;SDS011;1680;48.106;11.708;2023-08-12T04:56:08;5.30;;;4.90;;
1831;SDS011;1680;48.106;11.708;2023-08-12T04:58:35;4.57;;;4.17;;
1831;SDS011;1680;48.106;11.708;2023-08-12T05:01:03;5.10;;;4.70;;
1831;SDS011;1680;48.106;11.708;2023-08-12T05:03:30;4.60;;;4.20;;
1831;SDS011;1680;48.106;11.708;2023-08-12T05:05:58;5.00;;;4.60;;
1831;SDS011;1680;48.106;11.708;2023-08-12T05:08:25;5.77;;;5.17;;
1831;SDS011;1680;48.106;11.708;2023-08-12T05:10:53;5.10;;;4.60;;
1831;SDS011;1680;48.106;11.708;2023-08-12T05:13:20;5.10;;;4.70;;
1831;SDS011;1680;48.106;11.708;2023-08-12T05:15:48;4.87;;;4.47;;
1831;SDS011;1680;48.106;11.708;2023-08-12T05:18:15;4.97;;;4.53;;
1831;SDS011;1680;48.106;11.708;2023-08-12T05:20:43;5.03;;;4.53;;
1831;SDS011;1680;48.106;11.708;2023-08-12T05:23:11;5.17;;;4.73;;
1831;SDS011;1680;48.106;11.708;2023-08-12T05:25:38;5.30;;;4.90;;
1831;SDS011;1680;48.106;11.708;2023-08-12T05:28:08;5.07;;;4.67;;
1831;SDS011;1680;48.106;11.708;2023-08-12T05:30:36;5.20;;;4.70;;
1831;SDS011;1680;48.106;11.708;2023-08-12T05:33:04;5.57;;;5.17;;
1831;SDS011;1680;48.106;11.708;2023-08-12T05:35:32;5.27;;;4.77;;
1831;SDS011;1680;48.106;11.708;2023-08-12T05:38:00;6.03;;;5.43;;
1831;SDS011;1680;48.106;11.708;2023-08-12T05:40:28;5.70;;;5.20;;
1831;SDS011;1680;48.106;11.708;2023-08-12T05:42:56;5.33;;;4.90;;
1831;SDS011;1680;48.106;11.708;2023-08-12T05:45:23;5.47;;;5.00;;
1831;SDS011;1680;48.106;11.708;2023-08-12T05:47:50;4.87;;;4.50;;
1831;SDS011;1680;48.106;11.708;2023-08-12T05:50:20;5.53;;;5.07;;
1831;SDS011;1680;48.106;11.708;2023-08-12T05:52:47;5.57;;;5.17;;
1831;SDS011;1680;48.106;11.708;2023-08-12T05:55:15;5.70;;;5.10;;
1831;SDS011;1680;48.106;11.708;2023-08-12T05:57:43;5.10;;;4.60;;
1831;SDS011;1680;48.106;11.708;2023-08-12T06:00:11;5.53;;;5.03;;
1831;SDS011;1680;48.106;11.708;2023-08-12T06:02:38;5.73;;;4.70;;
1831;SDS011;1680;48.106;11.708;2023-08-12T06:05:06;5.40;;;5.00;;
1831;SDS011;1680;48.106;11.708;2023-08-12T06:07:34;5.37;;;4.97;;
1831;SDS011;1680;48.106;11.708;2023-08-12T06:10:02;5.20;;;4.80;;
1831;SDS011;1680;48.106;11.708;2023-08-12T06:12:29;5.17;;;4.77;;
1831;SDS011;1680;48.106;11.708;2023-08-12T06:14:58;6.50;;;5.33;;
1831;SDS011;1680;48.106;11.708;2023-08-12T06:17:26;5.30;;;4.90;;
1831;SDS011;1680;48.106;11.708;2023-08-12T06:19:53;5.23;;;4.83;;
1831;SDS011;1680;48.106;11.708;2023-08-12T06:22:20;5.20;;;4.77;;
1831;SDS011;1680;48.106;11.708;2023-08-12T06:24:47;5.20;;;4.67;;
1831;SDS011;1680;48.106;11.708;2023-08-12T06:27:15;4.40;;;4.10;;
1831;SDS011;1680;48.106;11.708;2023-08-12T06:29:42;4.60;;;4.27;;
1831;SDS011;1680;48.106;11.708;2023-08-12T06:32:10;4.97;;;4.57;;
1831;SDS011;1680;48.106;11.708;2023-08-12T06:34:39;5.50;;;5.00;;
1831;SDS011;1680;48.106;11.708;2023-08-12T06:37:06;4.83;;;4.50;;
1831;SDS011;1680;48.106;11.708;2023-08-12T06:39:34;5.53;;;5.00;;
1831;SDS011;1680;48.106;11.708;2023-08-12T06:42:01;4.70;;;4.30;;
1831;SDS011;1680;48.106;11.708;2023-08-12T06:44:29;5.40;;;5.00;;
1831;SDS011;1680;48.106;11.708;2023-08-12T06:46:57;5.10;;;4.70;;
1831;SDS011;1680;48.106;11.708;2023-08-12T06:49:25;5.40;;;5.00;;
1831;SDS011;1680;48.106;11.708;2023-08-12T06:51:52;5.87;;;5.40;;
1831;SDS011;1680;48.106;11.708;2023-08-12T06:54:19;7.10;;;5.10;;
1831;SDS011;1680;48.106;11.708;2023-08-12T06:56:48;5.20;;;4.60;;
1831;SDS011;1680;48.106;11.708;2023-08-12T06:59:15;5.53;;;5.00;;
1831;SDS011;1680;48.106;11.708;2023-08-12T07:01:42;5.10;;;4.60;;
1831;SDS011;1680;48.106;11.708;2023-08-12T07:04:09;5.23;;;4.83;;
1831;SDS011;1680;48.106;11.708;2023-08-12T07:06:38;4.50;;;4.20;;
1831;SDS011;1680;48.106;11.708;2023-08-12T07:09:05;5.10;;;4.70;;
1831;SDS011;1680;48.106;11.708;2023-08-12T07:11:33;4.67;;;4.37;;
1831;SDS011;1680;48.106;11.708;2023-08-12T07:14:00;5.37;;;4.97;;
1831;SDS011;1680;48.106;11.708;2023-08-12T07:16:27;4.37;;;4.07;;
1831;SDS011;1680;48.106;11.708;2023-08-12T07:18:54;5.03;;;4.63;;
1831;SDS011;1680;48.106;11.708;2023-08-12T07:21:21;5.30;;;4.90;;
1831;SDS011;1680;48.106;11.708;2023-08-12T07:23:50;4.50;;;4.20;;
1831;SDS011;1680;48.106;11.708;2023-08-12T07:26:17;4.90;;;4.60;;
1831;SDS011;1680;48.106;11.708;2023-08-12T07:28:45;5.47;;;5.07;;
1831;SDS011;1680;48.106;11.708;2023-08-12T07:31:12;4.77;;;4.40;;
1831;SDS011;1680;48.106;11.708;2023-08-12T07:33:39;4.77;;;4.47;;
1831;SDS011;1680;48.106;11.708;2023-08-12T07:36:07;5.23;;;4.83;;
1831;SDS011;1680;48.106;11.708;2023-08-12T07:38:34;5.17;;;4.77;;
1831;SDS011;1680;48.106;11.708;2023-08-12T07:41:02;5.07;;;4.67;;
1831;SDS011;1680;48.106;11.708;2023-08-12T07:43:30;5.10;;;4.70;;
1831;SDS011;1680;48.106;11.708;2023-08-12T07:45:57;5.10;;;4.40;;
1831;SDS011;1680;48.106;11.708;2023-08-12T07:48:24;4.93;;;4.63;;
1831;SDS011;1680;48.106;11.708;2023-08-12T07:50:54;5.40;;;5.00;;
1831;SDS011;1680;48.106;11.708;2023-08-12T07:53:22;5.20;;;4.80;;
1831;SDS011;1680;48.106;11.708;2023-08-12T07:55:50;5.63;;;5.23;;
1831;SDS011;1680;48.106;11.708;2023-08-12T07:58:18;5.03;;;4.63;;
1831;SDS011;1680;48.106;11.708;2023-08-12T08:00:45;5.63;;;5.20;;
1831;SDS011;1680;48.106;11.708;2023-08-12T08:03:12;5.47;;;5.07;;
1831;SDS011;1680;48.106;11.708;2023-08-12T08:05:40;4.67;;;4.37;;
1831;SDS011;1680;48.106;11.708;2023-08-12T08:08:07;5.07;;;4.77;;
1831;SDS011;1680;48.106;11.708;2023-08-12T08:10:34;5.07;;;4.67;;
1831;SDS011;1680;48.106;11.708;2023-08-12T08:13:01;4.87;;;4.47;;
1831;SDS011;1680;48.106;11.708;2023-08-12T08:15:30;5.07;;;4.67;;
1831;SDS011;1680;48.106;11.708;2023-08-12T08:17:57;5.10;;;4.80;;
1831;SDS011;1680;48.106;11.708;2023-08-12T08:20:24;4.83;;;4.50;;
1831;SDS011;1680;48.106;11.708;2023-08-12T08:22:51;4.87;;;4.57;;
1831;SDS011;1680;48.106;11.708;2023-08-12T08:25:20;4.83;;;4.43;;
1831;SDS011;1680;48.106;11.708;2023-08-12T08:27:47;5.27;;;4.83;;
1831;SDS011;1680;48.106;11.708;2023-08-12T08:30:15;4.90;;;4.60;;
1831;SDS011;1680;48.106;11.708;2023-08-12T08:32:43;5.40;;;4.90;;
1831;SDS011;1680;48.106;11.708;2023-08-12T08:35:11;4.90;;;4.60;;
1831;SDS011;1680;48.106;11.708;2023-08-12T08:37:40;4.87;;;4.57;;
1831;SDS011;1680;48.106;11.708;2023-08-12T08:40:08;5.23;;;4.83;;
1831;SDS011;1680;48.106;11.708;2023-08-12T08:42:35;5.30;;;4.80;;
1831;SDS011;1680;48.106;11.708;2023-08-12T08:45:03;5.20;;;4.80;;
1831;SDS011;1680;48.106;11.708;2023-08-12T08:47:41;5.03;;;4.63;;
1831;SDS011;1680;48.106;11.708;2023-08-12T08:50:11;5.17;;;4.70;;
1831;SDS011;1680;48.106;11.708;2023-08-12T08:52:39;4.53;;;4.23;;
1831;SDS011;1680;48.106;11.708;2023-08-12T08:55:08;4.80;;;4.50;;
1831;SDS011;1680;48.106;11.708;2023-08-12T08:57:36;4.27;;;3.87;;
1831;SDS011;1680;48.106;11.708;2023-08-12T09:00:05;4.50;;;4.10;;
1831;SDS011;1680;48.106;11.708;2023-08-12T09:02:34;4.07;;;3.77;;
1831;SDS011;1680;48.106;11.708;2023-08-12T09:05:04;4.50;;;4.10;;
1831;SDS011;1680;48.106;11.708;2023-08-12T09:07:33;4.40;;;4.10;;
1831;SDS011;1680;48.106;11.708;2023-08-12T09:10:00;4.40;;;4.10;;
1831;SDS011;1680;48.106;11.708;2023-08-12T09:12:30;4.57;;;4.27;;
1831;SDS011;1680;48.106;11.708;2023-08-12T09:14:58;4.70;;;4.40;;
1831;SDS011;1680;48.106;11.708;2023-08-12T09:17:25;4.53;;;4.23;;
1831;SDS011;1680;48.106;11.708;2023-08-12T09:19:52;4.40;;;4.10;;
1831;SDS011;1680;48.106;11.708;2023-08-12T09:22:21;4.60;;;4.30;;
1831;SDS011;1680;48.106;11.708;2023-08-12T09:24:52;4.60;;;4.20;;
1831;SDS011;1680;48.106;11.708;2023-08-12T09:27:23;4.37;;;4.07;;
1831;SDS011;1680;48.106;11.708;2023-08-12T09:29:51;4.90;;;4.60;;
1831;SDS011;1680;48.106;11.708;2023-08-12T09:32:22;4.70;;;4.40;;
1831;SDS011;1680;48.106;11.708;2023-08-12T09:34:50;5.10;;;4.70;;
1831;SDS011;1680;48.106;11.708;2023-08-12T09:37:19;4.60;;;4.30;;
1831;SDS011;1680;48.106;11.708;2023-08-12T09:39:49;4.83;;;4.43;;
1831;SDS011;1680;48.106;11.708;2023-08-12T09:42:17;4.30;;;4.00;;
1831;SDS011;1680;48.106;11.708;2023-08-12T09:44:45;4.80;;;4.50;;
1831;SDS011;1680;48.106;11.708;2023-08-12T09:47:13;5.17;;;4.77;;
1831;SDS011;1680;48.106;11.708;2023-08-12T09:49:40;5.30;;;4.90;;
1831;SDS011;1680;48.106;11.708;2023-08-12T09:52:08;5.60;;;5.10;;
1831;SDS011;1680;48.106;11.708;2023-08-12T09:54:35;5.17;;;4.80;;
1831;SDS011;1680;48.106;11.708;2023-08-12T09:57:05;5.30;;;4.90;;
1831;SDS011;1680;48.106;11.708;2023-08-12T09:59:35;5.30;;;4.90;;
1831;SDS011;1680;48.106;11.708;2023-08-12T10:02:02;4.60;;;4.30;;
1831;SDS011;1680;48.106;11.708;2023-08-12T10:04:33;4.73;;;4.43;;
1831;SDS011;1680;48.106;11.708;2023-08-12T10:07:05;4.97;;;4.67;;
1831;SDS011;1680;48.106;11.708;2023-08-12T10:09:32;4.47;;;4.07;;
1831;SDS011;1680;48.106;11.708;2023-08-12T10:12:01;4.87;;;4.47;;
1831;SDS011;1680;48.106;11.708;2023-08-12T10:14:30;4.20;;;3.90;;
1831;SDS011;1680;48.106;11.708;2023-08-12T10:16:58;5.00;;;4.60;;
1831;SDS011;1680;48.106;11.708;2023-08-12T10:19:25;4.63;;;4.23;;
1831;SDS011;1680;48.106;11.708;2023-08-12T10:21:54;4.10;;;3.80;;
1831;SDS011;1680;48.106;11.708;2023-08-12T10:24:23;4.43;;;4.13;;
1831;SDS011;1680;48.106;11.708;2023-08-12T10:26:50;4.43;;;4.13;;
1831;SDS011;1680;48.106;11.708;2023-08-12T10:29:18;4.20;;;3.90;;
1831;SDS011;1680;48.106;11.708;2023-08-12T10:31:47;4.80;;;4.50;;
1831;SDS011;1680;48.106;11.708;2023-08-12T10:34:18;4.80;;;4.50;;
1831;SDS011;1680;48.106;11.708;2023-08-12T10:36:46;4.70;;;4.40;;
1831;SDS011;1680;48.106;11.708;2023-08-12T10:39:14;4.60;;;4.30;;
1831;SDS011;1680;48.106;11.708;2023-08-12T10:41:49;5.00;;;4.60;;
1831;SDS011;1680;48.106;11.708;2023-08-12T10:44:19;5.03;;;4.60;;
1831;SDS011;1680;48.106;11.708;2023-08-12T10:46:52;4.50;;;4.20;;
1831;SDS011;1680;48.106;11.708;2023-08-12T10:49:21;4.43;;;4.13;;
1831;SDS011;1680;48.106;11.708;2023-08-12T10:51:49;4.70;;;4.40;;
1831;SDS011;1680;48.106;11.708;2023-08-12T10:54:18;4.83;;;4.43;;
1831;SDS011;1680;48.106;11.708;2023-08-12T10:57:06;4.47;;;4.17;;
1831;SDS011;1680;48.106;11.708;2023-08-12T10:59:51;4.97;;;4.67;;
1831;SDS011;1680;48.106;11.708;2023-08-12T11:02:22;4.90;;;4.40;;
1831;SDS011;1680;48.106;11.708;2023-08-12T11:04:54;4.90;;;4.60;;
1831;SDS011;1680;48.106;11.708;2023-08-12T11:07:27;5.20;;;4.80;;
1831;SDS011;1680;48.106;11.708;2023-08-12T11:09:58;4.60;;;4.30;;
1831;SDS011;1680;48.106;11.708;2023-08-12T11:12:30;4.60;;;4.20;;
1831;SDS011;1680;48.106;11.708;2023-08-12T11:14:58;4.90;;;4.50;;
1831;SDS011;1680;48.106;11.708;2023-08-12T11:17:33;4.97;;;4.57;;
1831;SDS011;1680;48.106;11.708;2023-08-12T11:20:02;4.10;;;3.80;;
1831;SDS011;1680;48.106;11.708;2023-08-12T11:22:32;4.50;;;4.20;;
1831;SDS011;1680;48.106;11.708;2023-08-12T11:25:02;4.57;;;4.23;;
1831;SDS011;1680;48.106;11.708;2023-08-12T11:27:35;4.90;;;4.50;;
1831;SDS011;1680;48.106;11.708;2023-08-12T11:30:04;4.87;;;4.50;;
1831;SDS011;1680;48.106;11.708;2023-08-12T11:32:37;4.93;;;4.63;;
1831;SDS011;1680;48.106;11.708;2023-08-12T11:35:05;5.43;;;4.80;;
1831;SDS011;1680;48.106;11.708;2023-08-12T11:37:34;5.27;;;4.73;;
1831;SDS011;1680;48.106;11.708;2023-08-12T11:40:02;5.03;;;4.73;;
1831;SDS011;1680;48.106;11.708;2023-08-12T11:42:30;4.83;;;4.53;;
1831;SDS011;1680;48.106;11.708;2023-08-12T11:44:57;4.30;;;4.00;;
1831;SDS011;1680;48.106;11.708;2023-08-12T11:47:24;5.20;;;4.70;;
1831;SDS011;1680;48.106;11.708;2023-08-12T11:49:53;4.90;;;4.60;;
1831;SDS011;1680;48.106;11.708;2023-08-12T11:52:20;5.33;;;4.87;;
1831;SDS011;1680;48.106;11.708;2023-08-12T11:54:49;4.53;;;4.23;;
1831;SDS011;1680;48.106;11.708;2023-08-12T11:57:16;4.93;;;4.63;;
1831;SDS011;1680;48.106;11.708;2023-08-12T11:59:44;4.70;;;4.30;;
1831;SDS011;1680;48.106;11.708;2023-08-12T12:02:14;4.60;;;4.30;;
1831;SDS011;1680;48.106;11.708;2023-08-12T12:04:42;5.00;;;4.60;;
1831;SDS011;1680;48.106;11.708;2023-08-12T12:07:20;4.83;;;4.53;;
1831;SDS011;1680;48.106;11.708;2023-08-12T12:09:50;5.40;;;4.90;;
1831;SDS011;1680;48.106;11.708;2023-08-12T12:12:21;4.37;;;4.07;;
1831;SDS011;1680;48.106;11.708;2023-08-12T12:14:50;4.00;;;3.80;;
1831;SDS011;1680;48.106;11.708;2023-08-12T12:17:20;3.80;;;3.50;;
1831;SDS011;1680;48.106;11.708;2023-08-12T12:19:51;3.53;;;3.33;;
1831;SDS011;1680;48.106;11.708;2023-08-12T12:22:25;5.63;;;4.20;;
1831;SDS011;1680;48.106;11.708;2023-08-12T12:24:54;3.93;;;3.70;;
1831;SDS011;1680;48.106;11.708;2023-08-12T12:27:21;4.17;;;3.87;;
1831;SDS011;1680;48.106;11.708;2023-08-12T12:29:48;4.10;;;3.70;;
1831;SDS011;1680;48.106;11.708;2023-08-12T12:32:17;4.17;;;3.87;;
1831;SDS011;1680;48.106;11.708;2023-08-12T12:34:45;4.07;;;3.77;;
1831;SDS011;1680;48.106;11.708;2023-08-12T12:37:12;4.63;;;4.10;;
1831;SDS011;1680;48.106;11.708;2023-08-12T12:39:41;5.57;;;4.60;;
1831;SDS011;1680;48.106;11.708;2023-08-12T12:42:08;3.70;;;3.40;;
1831;SDS011;1680;48.106;11.708;2023-08-12T12:44:36;3.97;;;3.67;;
1831;SDS011;1680;48.106;11.708;2023-08-12T12:47:03;3.47;;;3.27;;
1831;SDS011;1680;48.106;11.708;2023-08-12T12:49:31;3.40;;;3.20;;
1831;SDS011;1680;48.106;11.708;2023-08-12T12:51:58;3.90;;;3.60;;
1831;SDS011;1680;48.106;11.708;2023-08-12T12:54:27;4.20;;;3.90;;
1831;SDS011;1680;48.106;11.708;2023-08-12T12:56:57;3.40;;;3.20;;
1831;SDS011;1680;48.106;11.708;2023-08-12T12:59:24;3.80;;;3.50;;
1831;SDS011;1680;48.106;11.708;2023-08-12T13:01:51;4.90;;;3.70;;
1831;SDS011;1680;48.106;11.708;2023-08-12T13:04:19;4.27;;;3.70;;
1831;SDS011;1680;48.106;11.708;2023-08-12T13:06:46;4.20;;;3.90;;
1831;SDS011;1680;48.106;11.708;2023-08-12T13:09:16;4.07;;;3.77;;
1831;SDS011;1680;48.106;11.708;2023-08-12T13:11:43;3.90;;;3.60;;
1831;SDS011;1680;48.106;11.708;2023-08-12T13:14:11;4.57;;;4.23;;
1831;SDS011;1680;48.106;11.708;2023-08-12T13:16:38;4.40;;;4.10;;
1831;SDS011;1680;48.106;11.708;2023-08-12T13:19:06;4.60;;;4.20;;
1831;SDS011;1680;48.106;11.708;2023-08-12T13:21:33;3.77;;;3.57;;
1831;SDS011;1680;48.106;11.708;2023-08-12T13:24:00;3.63;;;3.33;;
1831;SDS011;1680;48.106;11.708;2023-08-12T13:26:29;4.33;;;4.03;;
1831;SDS011;1680;48.106;11.708;2023-08-12T13:28:56;4.00;;;3.70;;
1831;SDS011;1680;48.106;11.708;2023-08-12T13:31:24;4.10;;;3.80;;
1831;SDS011;1680;48.106;11.708;2023-08-12T13:33:51;4.20;;;3.20;;
1831;SDS011;1680;48.106;11.708;2023-08-12T13:36:18;5.83;;;4.20;;
1831;SDS011;1680;48.106;11.708;2023-08-12T13:38:46;4.60;;;4.30;;
1831;SDS011;1680;48.106;11.708;2023-08-12T13:41:13;4.43;;;4.03;;
1831;SDS011;1680;48.106;11.708;2023-08-12T13:43:40;4.47;;;4.07;;
1831;SDS011;1680;48.106;11.708;2023-08-12T13:46:07;5.17;;;4.67;;
1831;SDS011;1680;48.106;11.708;2023-08-12T13:48:36;4.47;;;4.17;;
1831;SDS011;1680;48.106;11.708;2023-08-12T13:51:03;5.10;;;4.70;;
1831;SDS011;1680;48.106;11.708;2023-08-12T13:53:31;4.83;;;4.53;;
1831;SDS011;1680;48.106;11.708;2023-08-12T13:55:58;4.97;;;4.60;;
1831;SDS011;1680;48.106;11.708;2023-08-12T13:58:25;4.93;;;4.53;;
1831;SDS011;1680;48.106;11.708;2023-08-12T14:00:52;4.90;;;4.50;;
1831;SDS011;1680;48.106;11.708;2023-08-12T14:03:19;5.07;;;4.77;;
1831;SDS011;1680;48.106;11.708;2023-08-12T14:05:48;5.20;;;4.80;;
1831;SDS011;1680;48.106;11.708;2023-08-12T14:08:15;6.30;;;5.03;;
1831;SDS011;1680;48.106;11.708;2023-08-12T14:10:42;4.27;;;3.97;;
1831;SDS011;1680;48.106;11.708;2023-08-12T14:13:09;4.87;;;4.57;;
1831;SDS011;1680;48.106;11.708;2023-08-12T14:15:37;4.70;;;4.40;;
1831;SDS011;1680;48.106;11.708;2023-08-12T14:18:04;5.13;;;4.73;;
1831;SDS011;1680;48.106;11.708;2023-08-12T14:20:31;4.17;;;3.83;;
1831;SDS011;1680;48.106;11.708;2023-08-12T14:23:00;4.40;;;4.10;;
1831;SDS011;1680;48.106;11.708;2023-08-12T14:25:27;5.17;;;4.77;;
1831;SDS011;1680;48.106;11.708;2023-08-12T14:27:54;5.10;;;3.83;;
1831;SDS011;1680;48.106;11.708;2023-08-12T14:30:23;5.57;;;4.40;;
1831;SDS011;1680;48.106;11.708;2023-08-12T14:32:51;4.97;;;3.97;;
1831;SDS011;1680;48.106;11.708;2023-08-12T14:35:18;4.13;;;3.83;;
1831;SDS011;1680;48.106;11.708;2023-08-12T14:37:45;4.50;;;4.10;;
1831;SDS011;1680;48.106;11.708;2023-08-12T14:40:14;5.93;;;4.50;;
1831;SDS011;1680;48.106;11.708;2023-08-12T14:42:41;5.30;;;3.97;;
1831;SDS011;1680;48.106;11.708;2023-08-12T14:45:09;4.03;;;3.73;;
1831;SDS011;1680;48.106;11.708;2023-08-12T14:47:36;4.90;;;4.00;;
1831;SDS011;1680;48.106;11.708;2023-08-12T14:50:04;4.40;;;4.10;;
1831;SDS011;1680;48.106;11.708;2023-08-12T14:52:31;4.50;;;4.20;;
1831;SDS011;1680;48.106;11.708;2023-08-12T14:54:58;6.30;;;5.67;;
1831;SDS011;1680;48.106;11.708;2023-08-12T14:57:27;6.03;;;5.50;;
1831;SDS011;1680;48.106;11.708;2023-08-12T14:59:54;5.03;;;4.60;;
1831;SDS011;1680;48.106;11.708;2023-08-12T15:02:21;4.53;;;4.13;;
1831;SDS011;1680;48.106;11.708;2023-08-12T15:04:48;4.83;;;4.43;;